Time;durP1;ratioP1;P1;durP2;ratioP2;P2;SDS_P1;SDS_P2;PMS_P1;PMS_P2;Temp;Humidity;BMP_temperature;BMP_pressure;BME280_temperature;BME280_humidity;BME280_pressure;Samples;Min_cycle;Max_cycle;Signal;HPM_P1;HPM_P2
2024/01/01 00:01:44;;;;;;;;;;;4.60;100.00;;;;;;6266732;22;19969;-70
2024/01/01 00:04:11;;;;;;;;;;;4.60;100.00;;;;;;6239485;22;19985;-70
2024/01/01 00:06:37;;;;;;;;;;;4.60;100.00;;;;;;6266219;22;19927;-70
2024/01/01 00:09:04;;;;;;;;;;;4.70;100.00;;;;;;6267286;22;19919;-72
2024/01/01 00:11:31;;;;;;;;;;;4.70;100.00;;;;;;6265104;22;19942;-71
2024/01/01 00:13:58;;;;;;;;;;;4.70;100.00;;;;;;6237793;22;19919;-71
2024/01/01 00:16:25;;;;;;;;;;;4.70;100.00;;;;;;6236572;22;19923;-70
2024/01/01 00:18:52;;;;;;;;;;;4.70;100.00;;;;;;6265063;22;20323;-71
2024/01/01 00:21:19;;;;;;;;;;;4.80;100.00;;;;;;6237678;22;19929;-71
2024/01/01 00:23:45;;;;;;;;;;;4.80;100.00;;;;;;6265843;22;19919;-71
2024/01/01 00:26:13;;;;;;;;;;;4.80;100.00;;;;;;6265096;22;19973;-71
2024/01/01 00:28:40;;;;;;;;;;;4.80;100.00;;;;;;6265420;22;19915;-71
2024/01/01 00:31:06;;;;;;;;;;;4.80;100.00;;;;;;6238146;22;19982;-71
2024/01/01 00:33:33;;;;;;;;;;;4.80;100.00;;;;;;6265249;22;20447;-71
2024/01/01 00:36:00;;;;;;;;;;;4.80;100.00;;;;;;6265820;22;19984;-71
2024/01/01 00:38:27;;;;;;;;;;;4.80;100.00;;;;;;6265348;22;19919;-70
2024/01/01 00:40:54;;;;;;;;;;;4.90;100.00;;;;;;6266053;22;19931;-71
2024/01/01 00:43:21;;;;;;;;;;;4.90;100.00;;;;;;6265848;22;19998;-74
2024/01/01 00:45:47;;;;;;;;;;;4.90;100.00;;;;;;6241285;22;20298;-69
2024/01/01 00:48:16;;;;;;;;;;;4.90;100.00;;;;;;6266033;22;20219;-68
2024/01/01 00:50:46;;;;;;;;;;;4.90;100.00;;;;;;6266279;22;19930;-68
2024/01/01 00:53:13;;;;;;;;;;;5.00;100.00;;;;;;6266456;22;19927;-68
2024/01/01 00:55:40;;;;;;;;;;;5.00;100.00;;;;;;6266295;22;20430;-68
2024/01/01 00:58:07;;;;;;;;;;;5.00;100.00;;;;;;6265560;22;19933;-70
2024/01/01 01:00:34;;;;;;;;;;;5.00;100.00;;;;;;6265895;22;19946;-71
2024/01/01 01:03:01;;;;;;;;;;;5.00;100.00;;;;;;6238849;22;20308;-68
2024/01/01 01:05:28;;;;;;;;;;;5.00;100.00;;;;;;6267011;22;20002;-68
2024/01/01 01:07:55;;;;;;;;;;;5.10;100.00;;;;;;6266754;22;19973;-69
2024/01/01 01:10:23;;;;;;;;;;;5.10;100.00;;;;;;6240376;22;20292;-69
2024/01/01 01:12:53;;;;;;;;;;;5.10;100.00;;;;;;6240703;22;20312;-69
2024/01/01 01:15:21;;;;;;;;;;;5.10;100.00;;;;;;6267464;22;19915;-69
2024/01/01 01:17:48;;;;;;;;;;;5.10;100.00;;;;;;6266968;22;19919;-69
2024/01/01 01:20:15;;;;;;;;;;;5.10;100.00;;;;;;6267178;22;20340;-69
2024/01/01 01:22:42;;;;;;;;;;;5.10;100.00;;;;;;6239630;22;20288;-69
2024/01/01 01:25:09;;;;;;;;;;;5.20;100.00;;;;;;6266795;22;19938;-69
2024/01/01 01:27:36;;;;;;;;;;;5.20;100.00;;;;;;6267393;22;19967;-69
2024/01/01 01:30:03;;;;;;;;;;;5.20;100.00;;;;;;6240449;22;20033;-69
2024/01/01 01:32:30;;;;;;;;;;;5.20;100.00;;;;;;6239835;22;19990;-69
2024/01/01 01:34:57;;;;;;;;;;;5.20;100.00;;;;;;6266643;22;19929;-69
2024/01/01 01:37:23;;;;;;;;;;;5.30;100.00;;;;;;6266670;22;19923;-69
2024/01/01 01:39:50;;;;;;;;;;;5.30;100.00;;;;;;6265768;22;20653;-69
2024/01/01 01:42:17;;;;;;;;;;;5.30;100.00;;;;;;6266668;22;19980;-69
2024/01/01 01:44:43;;;;;;;;;;;5.20;100.00;;;;;;6266958;22;19996;-69
2024/01/01 01:47:11;;;;;;;;;;;5.30;100.00;;;;;;6265082;22;20229;-69
2024/01/01 01:49:39;;;;;;;;;;;5.30;100.00;;;;;;6238496;22;19915;-69
2024/01/01 01:52:06;;;;;;;;;;;5.20;100.00;;;;;;6266807;22;19942;-69
2024/01/01 01:54:33;;;;;;;;;;;5.20;100.00;;;;;;6239858;22;20506;-69
2024/01/01 01:57:01;;;;;;;;;;;5.10;100.00;;;;;;6266446;22;19915;-69
2024/01/01 01:59:28;;;;;;;;;;;5.10;100.00;;;;;;6239578;22;19919;-68
2024/01/01 02:01:56;;;;;;;;;;;5.00;100.00;;;;;;6266268;22;19945;-69
2024/01/01 02:04:23;;;;;;;;;;;5.10;100.00;;;;;;6266270;22;19926;-69
2024/01/01 02:06:50;;;;;;;;;;;5.10;100.00;;;;;;6266640;22;20504;-69
2024/01/01 02:09:17;;;;;;;;;;;5.20;100.00;;;;;;6266438;22;19925;-69
2024/01/01 02:11:43;;;;;;;;;;;5.10;100.00;;;;;;6264962;22;19989;-69
2024/01/01 02:14:11;;;;;;;;;;;5.10;100.00;;;;;;6239370;22;19919;-69
2024/01/01 02:16:39;;;;;;;;;;;5.10;100.00;;;;;;6239962;22;20600;-69
2024/01/01 02:19:10;;;;;;;;;;;5.10;100.00;;;;;;6266579;22;20006;-69
2024/01/01 02:21:37;;;;;;;;;;;5.00;100.00;;;;;;6267123;22;19919;-69
2024/01/01 02:24:04;;;;;;;;;;;5.00;100.00;;;;;;6266161;22;20255;-69
2024/01/01 02:26:31;;;;;;;;;;;5.00;100.00;;;;;;6266060;22;20320;-69
2024/01/01 02:28:57;;;;;;;;;;;5.00;100.00;;;;;;6265815;22;19923;-69
2024/01/01 02:31:24;;;;;;;;;;;5.10;100.00;;;;;;6267043;22;20540;-69
2024/01/01 02:33:51;;;;;;;;;;;5.10;100.00;;;;;;6266234;22;20336;-69
2024/01/01 02:36:18;;;;;;;;;;;5.10;100.00;;;;;;6266116;22;19997;-69
2024/01/01 02:38:45;;;;;;;;;;;5.10;100.00;;;;;;6266026;22;19942;-69
2024/01/01 02:41:11;;;;;;;;;;;5.10;100.00;;;;;;6239551;22;19923;-69
2024/01/01 02:43:38;;;;;;;;;;;5.10;100.00;;;;;;6265653;22;19926;-69
2024/01/01 02:46:05;;;;;;;;;;;5.10;100.00;;;;;;6265931;22;19919;-69
2024/01/01 02:48:32;;;;;;;;;;;5.10;100.00;;;;;;6266266;22;19927;-69
2024/01/01 02:50:58;;;;;;;;;;;5.20;100.00;;;;;;6266365;22;19998;-69
2024/01/01 02:53:25;;;;;;;;;;;5.20;100.00;;;;;;6265595;22;19919;-69
2024/01/01 02:55:52;;;;;;;;;;;5.20;100.00;;;;;;6266009;22;19919;-69
2024/01/01 02:58:19;;;;;;;;;;;5.20;100.00;;;;;;6266232;22;19918;-69
2024/01/01 03:00:47;;;;;;;;;;;5.20;100.00;;;;;;6265497;22;20286;-70
2024/01/01 03:03:14;;;;;;;;;;;5.20;100.00;;;;;;6239551;22;19957;-69
2024/01/01 03:05:43;;;;;;;;;;;5.20;100.00;;;;;;6266135;22;19915;-70
2024/01/01 03:08:10;;;;;;;;;;;5.20;100.00;;;;;;6265605;22;19919;-70
2024/01/01 03:10:37;;;;;;;;;;;5.20;100.00;;;;;;6266259;22;20022;-69
2024/01/01 03:13:04;;;;;;;;;;;5.20;100.00;;;;;;6266379;22;20311;-69
2024/01/01 03:15:30;;;;;;;;;;;5.20;100.00;;;;;;6265405;22;19988;-69
2024/01/01 03:17:57;;;;;;;;;;;5.20;100.00;;;;;;6239258;22;19972;-69
2024/01/01 03:20:30;;;;;;;;;;;5.20;100.00;;;;;;6238767;22;19934;-69
2024/01/01 03:22:57;;;;;;;;;;;5.20;100.00;;;;;;6265890;22;19926;-69
2024/01/01 03:25:24;;;;;;;;;;;5.20;100.00;;;;;;6265738;22;19947;-69
2024/01/01 03:27:51;;;;;;;;;;;5.20;100.00;;;;;;6238971;22;19923;-69
2024/01/01 03:30:19;;;;;;;;;;;5.20;100.00;;;;;;6266015;22;19997;-69
2024/01/01 03:32:46;;;;;;;;;;;5.20;100.00;;;;;;6238321;22;19927;-70
2024/01/01 03:35:13;;;;;;;;;;;5.20;100.00;;;;;;6265486;22;19918;-70
2024/01/01 03:37:40;;;;;;;;;;;5.20;100.00;;;;;;6265981;22;20004;-69
2024/01/01 03:40:07;;;;;;;;;;;5.10;100.00;;;;;;6265357;22;19930;-69
2024/01/01 03:42:34;;;;;;;;;;;5.10;100.00;;;;;;6266443;22;19923;-69
2024/01/01 03:45:01;;;;;;;;;;;5.10;100.00;;;;;;6266082;22;19926;-69
2024/01/01 03:47:28;;;;;;;;;;;5.10;100.00;;;;;;6265337;22;19919;-69
2024/01/01 03:49:55;;;;;;;;;;;5.10;100.00;;;;;;6266006;22;19923;-69
2024/01/01 03:52:22;;;;;;;;;;;5.00;100.00;;;;;;6266333;22;19950;-69
2024/01/01 03:54:49;;;;;;;;;;;5.00;100.00;;;;;;6264965;22;20328;-69
2024/01/01 03:57:15;;;;;;;;;;;5.00;100.00;;;;;;6265340;22;20332;-69
2024/01/01 03:59:42;;;;;;;;;;;5.00;100.00;;;;;;6265635;22;19919;-69
2024/01/01 04:02:12;;;;;;;;;;;4.90;100.00;;;;;;6266316;22;19923;-69
2024/01/01 04:04:42;;;;;;;;;;;4.90;100.00;;;;;;6264745;22;20374;-69
2024/01/01 04:07:10;;;;;;;;;;;4.90;100.00;;;;;;6266164;22;19957;-70
2024/01/01 04:09:36;;;;;;;;;;;4.80;100.00;;;;;;6266707;22;20004;-70
2024/01/01 04:12:03;;;;;;;;;;;4.80;100.00;;;;;;6267311;22;20291;-69
2024/01/01 04:14:30;;;;;;;;;;;4.70;100.00;;;;;;6267286;22;20468;-69
2024/01/01 04:16:57;;;;;;;;;;;4.70;100.00;;;;;;6266797;22;19919;-69
2024/01/01 04:19:24;;;;;;;;;;;4.70;100.00;;;;;;6267346;22;19961;-70
2024/01/01 04:21:51;;;;;;;;;;;4.70;100.00;;;;;;6268070;22;19918;-70
2024/01/01 04:24:17;;;;;;;;;;;4.80;100.00;;;;;;6240090;22;19919;-70
2024/01/01 04:26:44;;;;;;;;;;;4.80;100.00;;;;;;6240265;22;19954;-69
2024/01/01 04:29:12;;;;;;;;;;;4.80;100.00;;;;;;6267218;22;19965;-69
2024/01/01 04:31:38;;;;;;;;;;;4.80;100.00;;;;;;6267669;22;19923;-69
2024/01/01 04:34:05;;;;;;;;;;;4.80;100.00;;;;;;6267413;22;19922;-70
2024/01/01 04:36:32;;;;;;;;;;;4.90;100.00;;;;;;6265312;22;20558;-69
2024/01/01 04:38:59;;;;;;;;;;;4.90;100.00;;;;;;6267304;22;20263;-69
2024/01/01 04:41:26;;;;;;;;;;;4.90;100.00;;;;;;6240520;22;19926;-69
2024/01/01 04:43:53;;;;;;;;;;;4.90;100.00;;;;;;6266551;22;19923;-69
2024/01/01 04:46:20;;;;;;;;;;;4.90;100.00;;;;;;6266745;22;19919;-69
2024/01/01 04:48:47;;;;;;;;;;;4.90;100.00;;;;;;6267047;22;19923;-69
2024/01/01 04:51:14;;;;;;;;;;;4.90;100.00;;;;;;6265640;22;19923;-69
2024/01/01 04:53:41;;;;;;;;;;;5.00;100.00;;;;;;6265982;22;20459;-69
2024/01/01 04:56:07;;;;;;;;;;;5.00;100.00;;;;;;6267007;22;19919;-69
2024/01/01 04:58:34;;;;;;;;;;;5.00;100.00;;;;;;6265946;22;19930;-69
2024/01/01 05:01:01;;;;;;;;;;;5.00;100.00;;;;;;6266376;22;19922;-69
2024/01/01 05:03:28;;;;;;;;;;;5.00;100.00;;;;;;6266130;22;19994;-69
2024/01/01 05:05:54;;;;;;;;;;;5.00;100.00;;;;;;6239593;22;19923;-70
2024/01/01 05:08:21;;;;;;;;;;;5.10;100.00;;;;;;6266525;22;19923;-70
2024/01/01 05:10:48;;;;;;;;;;;5.00;100.00;;;;;;6267141;22;19982;-70
2024/01/01 05:13:16;;;;;;;;;;;5.00;100.00;;;;;;6267023;22;19923;-70
2024/01/01 05:15:43;;;;;;;;;;;5.00;100.00;;;;;;6239327;22;20323;-70
2024/01/01 05:18:10;;;;;;;;;;;5.00;100.00;;;;;;6267298;22;20303;-70
2024/01/01 05:20:37;;;;;;;;;;;5.00;100.00;;;;;;6266697;22;20001;-70
2024/01/01 05:23:04;;;;;;;;;;;5.00;100.00;;;;;;6266431;22;20294;-69
2024/01/01 05:25:31;;;;;;;;;;;5.00;100.00;;;;;;6266366;22;19946;-70
2024/01/01 05:27:57;;;;;;;;;;;5.00;100.00;;;;;;6266284;22;19950;-69
2024/01/01 05:30:27;;;;;;;;;;;5.00;100.00;;;;;;6266054;22;19973;-69
2024/01/01 05:32:54;;;;;;;;;;;4.90;100.00;;;;;;6266981;22;20002;-69
2024/01/01 05:35:21;;;;;;;;;;;4.90;100.00;;;;;;6266817;22;19970;-70
2024/01/01 05:37:47;;;;;;;;;;;4.90;100.00;;;;;;6266734;22;19957;-69
2024/01/01 05:40:14;;;;;;;;;;;5.00;100.00;;;;;;6265702;22;19954;-69
2024/01/01 05:42:41;;;;;;;;;;;5.00;100.00;;;;;;6266444;22;20255;-69
2024/01/01 05:45:08;;;;;;;;;;;4.90;100.00;;;;;;6266782;22;19919;-69
2024/01/01 05:47:34;;;;;;;;;;;4.90;100.00;;;;;;6266104;22;19931;-69
2024/01/01 05:50:01;;;;;;;;;;;4.90;100.00;;;;;;6265695;22;20665;-69
2024/01/01 05:52:29;;;;;;;;;;;4.90;100.00;;;;;;6266044;22;19925;-69
2024/01/01 05:54:55;;;;;;;;;;;4.90;100.00;;;;;;6266059;22;19973;-68
2024/01/01 05:57:22;;;;;;;;;;;4.90;100.00;;;;;;6266346;22;19972;-68
2024/01/01 05:59:49;;;;;;;;;;;4.90;100.00;;;;;;6266604;22;19922;-69
2024/01/01 06:02:15;;;;;;;;;;;4.90;100.00;;;;;;6265634;22;19919;-69
2024/01/01 06:04:42;;;;;;;;;;;4.80;100.00;;;;;;6266005;22;20006;-69
2024/01/01 06:07:09;;;;;;;;;;;4.80;100.00;;;;;;6239058;22;19926;-69
2024/01/01 06:09:36;;;;;;;;;;;4.80;100.00;;;;;;6265723;22;20272;-69
2024/01/01 06:12:03;;;;;;;;;;;4.80;100.00;;;;;;6265788;22;20302;-69
2024/01/01 06:14:30;;;;;;;;;;;4.80;100.00;;;;;;6266303;22;20320;-69
2024/01/01 06:16:57;;;;;;;;;;;4.80;100.00;;;;;;6265710;22;19927;-69
2024/01/01 06:19:24;;;;;;;;;;;4.80;100.00;;;;;;6264887;22;19919;-69
2024/01/01 06:21:51;;;;;;;;;;;4.80;100.00;;;;;;6265603;22;19955;-69
2024/01/01 06:24:18;;;;;;;;;;;4.80;100.00;;;;;;6239022;22;19950;-69
2024/01/01 06:26:45;;;;;;;;;;;4.80;100.00;;;;;;6238909;22;20001;-69
2024/01/01 06:29:11;;;;;;;;;;;4.80;100.00;;;;;;6238575;22;19959;-69
2024/01/01 06:31:38;;;;;;;;;;;4.80;100.00;;;;;;6237964;22;19919;-69
2024/01/01 06:34:05;;;;;;;;;;;4.80;100.00;;;;;;6265012;22;19923;-69
2024/01/01 06:36:32;;;;;;;;;;;4.80;100.00;;;;;;6265403;22;19919;-69
2024/01/01 06:38:58;;;;;;;;;;;4.80;100.00;;;;;;6266236;22;19943;-69
2024/01/01 06:41:25;;;;;;;;;;;4.80;100.00;;;;;;6266176;22;20393;-69
2024/01/01 06:43:52;;;;;;;;;;;4.80;100.00;;;;;;6265099;22;19919;-69
2024/01/01 06:46:19;;;;;;;;;;;4.80;100.00;;;;;;6237964;22;20009;-69
2024/01/01 06:48:45;;;;;;;;;;;4.80;100.00;;;;;;6264151;22;19923;-69
2024/01/01 06:51:12;;;;;;;;;;;4.80;100.00;;;;;;6237288;22;19925;-69
2024/01/01 06:53:39;;;;;;;;;;;4.80;100.00;;;;;;6237433;22;19984;-70
2024/01/01 06:56:06;;;;;;;;;;;4.80;100.00;;;;;;6239199;22;19922;-69
2024/01/01 06:58:36;;;;;;;;;;;4.80;100.00;;;;;;6266061;22;19982;-69
2024/01/01 07:01:03;;;;;;;;;;;4.80;100.00;;;;;;6238825;22;19923;-69
2024/01/01 07:03:29;;;;;;;;;;;4.80;100.00;;;;;;6265688;22;19919;-69
2024/01/01 07:05:56;;;;;;;;;;;4.80;100.00;;;;;;6265298;22;19919;-69
2024/01/01 07:08:23;;;;;;;;;;;4.80;100.00;;;;;;6265109;22;19970;-69
2024/01/01 07:10:50;;;;;;;;;;;4.80;100.00;;;;;;6265105;22;20247;-69
2024/01/01 07:13:17;;;;;;;;;;;4.80;100.00;;;;;;6239185;22;19918;-69
2024/01/01 07:15:44;;;;;;;;;;;4.80;100.00;;;;;;6238259;22;19919;-69
2024/01/01 07:18:10;;;;;;;;;;;4.90;100.00;;;;;;6265399;22;20294;-69
2024/01/01 07:20:38;;;;;;;;;;;4.90;100.00;;;;;;6239716;22;19954;-69
2024/01/01 07:23:04;;;;;;;;;;;4.90;100.00;;;;;;6265839;22;19969;-70
2024/01/01 07:25:31;;;;;;;;;;;5.00;100.00;;;;;;6265609;22;20613;-69
2024/01/01 07:27:58;;;;;;;;;;;5.00;100.00;;;;;;6265306;22;20399;-69
2024/01/01 07:30:26;;;;;;;;;;;5.00;100.00;;;;;;6237800;22;19985;-71
2024/01/01 07:32:52;;;;;;;;;;;5.00;100.00;;;;;;6237879;22;19919;-70
2024/01/01 07:35:19;;;;;;;;;;;5.00;100.00;;;;;;6264413;22;19943;-70
2024/01/01 07:37:46;;;;;;;;;;;5.00;100.00;;;;;;6265094;22;20292;-70
2024/01/01 07:40:13;;;;;;;;;;;5.00;100.00;;;;;;6265176;22;19919;-70
2024/01/01 07:42:40;;;;;;;;;;;5.00;100.00;;;;;;6265130;22;20557;-71
2024/01/01 07:45:07;;;;;;;;;;;5.00;100.00;;;;;;6238419;22;19992;-71
2024/01/01 07:47:33;;;;;;;;;;;5.00;100.00;;;;;;6264919;22;19953;-71
2024/01/01 07:50:00;;;;;;;;;;;5.10;100.00;;;;;;6265706;22;19926;-71
2024/01/01 07:52:27;;;;;;;;;;;5.10;100.00;;;;;;6265406;22;19955;-70
2024/01/01 07:54:57;;;;;;;;;;;5.10;100.00;;;;;;6264805;22;19927;-70
2024/01/01 07:57:24;;;;;;;;;;;5.10;100.00;;;;;;6265201;22;19919;-70
2024/01/01 07:59:55;;;;;;;;;;;5.20;100.00;;;;;;6238665;22;19919;-71
2024/01/01 08:02:22;;;;;;;;;;;5.20;100.00;;;;;;6264633;22;19973;-70
2024/01/01 08:04:53;;;;;;;;;;;5.20;100.00;;;;;;6265057;22;19919;-70
2024/01/01 08:07:20;;;;;;;;;;;5.20;100.00;;;;;;6265479;22;19919;-70
2024/01/01 08:09:47;;;;;;;;;;;5.20;100.00;;;;;;6265522;22;19919;-70
2024/01/01 08:12:14;;;;;;;;;;;5.20;100.00;;;;;;6264301;22;19919;-70
2024/01/01 08:14:41;;;;;;;;;;;5.20;100.00;;;;;;6237765;22;19919;-71
2024/01/01 08:17:08;;;;;;;;;;;5.20;100.00;;;;;;6265486;22;20331;-70
2024/01/01 08:19:35;;;;;;;;;;;5.20;100.00;;;;;;6237964;22;19919;-70
2024/01/01 08:22:02;;;;;;;;;;;5.20;100.00;;;;;;6265441;22;20014;-70
2024/01/01 08:24:29;;;;;;;;;;;5.20;100.00;;;;;;6265137;22;20445;-70
2024/01/01 08:26:56;;;;;;;;;;;5.20;100.00;;;;;;6237689;22;19946;-71
2024/01/01 08:29:23;;;;;;;;;;;5.20;100.00;;;;;;6264703;22;20437;-71
2024/01/01 08:31:49;;;;;;;;;;;5.30;100.00;;;;;;6265594;22;19926;-71
2024/01/01 08:34:16;;;;;;;;;;;5.20;100.00;;;;;;6238847;22;19964;-71
2024/01/01 08:36:43;;;;;;;;;;;5.30;100.00;;;;;;6264483;22;20002;-71
2024/01/01 08:39:10;;;;;;;;;;;5.30;100.00;;;;;;6265202;22;20362;-71
2024/01/01 08:41:43;;;;;;;;;;;5.40;100.00;;;;;;6265172;22;19922;-71
2024/01/01 08:44:10;;;;;;;;;;;5.40;100.00;;;;;;6236902;22;19918;-71
2024/01/01 08:46:37;;;;;;;;;;;5.40;100.00;;;;;;6264994;22;19945;-71
2024/01/01 08:49:04;;;;;;;;;;;5.50;100.00;;;;;;6239450;22;19923;-70
2024/01/01 08:51:30;;;;;;;;;;;5.60;100.00;;;;;;6265087;22;19925;-70
2024/01/01 08:53:57;;;;;;;;;;;5.60;100.00;;;;;;6238979;22;19985;-70
2024/01/01 08:56:24;;;;;;;;;;;5.60;100.00;;;;;;6267398;22;19939;-70
2024/01/01 08:58:51;;;;;;;;;;;5.70;100.00;;;;;;6266513;22;19985;-71
2024/01/01 09:01:18;;;;;;;;;;;5.70;100.00;;;;;;6266416;22;20018;-70
2024/01/01 09:03:45;;;;;;;;;;;5.70;100.00;;;;;;6265941;22;19938;-71
2024/01/01 09:06:11;;;;;;;;;;;5.80;100.00;;;;;;6265980;22;19926;-70
2024/01/01 09:08:38;;;;;;;;;;;5.80;100.00;;;;;;6239068;22;19926;-71
2024/01/01 09:11:06;;;;;;;;;;;5.80;100.00;;;;;;6240003;22;19926;-71
2024/01/01 09:13:33;;;;;;;;;;;5.80;100.00;;;;;;6266770;22;20652;-71
2024/01/01 09:16:01;;;;;;;;;;;5.90;100.00;;;;;;6266463;22;19991;-70
2024/01/01 09:18:27;;;;;;;;;;;5.90;100.00;;;;;;6267846;22;19918;-70
2024/01/01 09:20:55;;;;;;;;;;;5.90;100.00;;;;;;6240345;22;19986;-71
2024/01/01 09:23:27;;;;;;;;;;;5.90;100.00;;;;;;6266565;22;19919;-71
2024/01/01 09:25:54;;;;;;;;;;;5.90;100.00;;;;;;6238453;22;19926;-70
2024/01/01 09:28:21;;;;;;;;;;;6.00;100.00;;;;;;6265160;22;20747;-70
2024/01/01 09:30:48;;;;;;;;;;;6.00;100.00;;;;;;6264872;22;19965;-71
2024/01/01 09:33:15;;;;;;;;;;;6.00;100.00;;;;;;6266514;22;19918;-70
2024/01/01 09:35:42;;;;;;;;;;;6.00;100.00;;;;;;6266344;22;20661;-70
2024/01/01 09:38:09;;;;;;;;;;;6.00;100.00;;;;;;6240601;22;19915;-70
2024/01/01 09:40:40;;;;;;;;;;;6.00;100.00;;;;;;6265227;22;20544;-70
2024/01/01 09:43:06;;;;;;;;;;;6.10;100.00;;;;;;6239036;22;19923;-70
2024/01/01 09:45:34;;;;;;;;;;;6.10;100.00;;;;;;6264925;22;19927;-70
2024/01/01 09:48:00;;;;;;;;;;;6.20;100.00;;;;;;6264761;22;20327;-70
2024/01/01 09:50:27;;;;;;;;;;;6.20;100.00;;;;;;6239065;22;19919;-70
2024/01/01 09:53:01;;;;;;;;;;;6.20;100.00;;;;;;6240077;22;19919;-70
2024/01/01 09:55:28;;;;;;;;;;;6.20;100.00;;;;;;6265847;22;19919;-70
2024/01/01 09:57:54;;;;;;;;;;;6.30;100.00;;;;;;6266361;22;19919;-70
2024/01/01 10:00:22;;;;;;;;;;;6.30;100.00;;;;;;6266660;22;20469;-70
2024/01/01 10:02:49;;;;;;;;;;;6.30;100.00;;;;;;6239284;22;20246;-70
2024/01/01 10:05:16;;;;;;;;;;;6.30;100.00;;;;;;6264648;22;19954;-70
2024/01/01 10:07:50;;;;;;;;;;;6.40;100.00;;;;;;6239256;22;19919;-71
2024/01/01 10:10:29;;;;;;;;;;;6.50;100.00;;;;;;6265682;22;19958;-70
2024/01/01 10:13:06;;;;;;;;;;;6.50;100.00;;;;;;6265109;22;20522;-71
2024/01/01 10:15:33;;;;;;;;;;;6.60;100.00;;;;;;6266337;22;19919;-69
2024/01/01 10:18:10;;;;;;;;;;;6.60;100.00;;;;;;6264795;22;19953;-71
2024/01/01 10:20:42;;;;;;;;;;;6.60;100.00;;;;;;6264360;22;19945;-71
2024/01/01 10:23:18;;;;;;;;;;;6.60;100.00;;;;;;6264527;22;19926;-69
2024/01/01 10:25:45;;;;;;;;;;;6.60;100.00;;;;;;6263963;22;20587;-71
2024/01/01 10:28:16;;;;;;;;;;;6.70;100.00;;;;;;6265219;22;19923;-69
2024/01/01 10:30:49;;;;;;;;;;;6.70;100.00;;;;;;6266743;22;19919;-68
2024/01/01 10:33:17;;;;;;;;;;;6.70;100.00;;;;;;6266845;22;19923;-69
2024/01/01 10:35:44;;;;;;;;;;;6.80;100.00;;;;;;6265395;22;19957;-69
2024/01/01 10:38:14;;;;;;;;;;;6.80;100.00;;;;;;6264989;22;19919;-70
2024/01/01 10:40:41;;;;;;;;;;;6.90;100.00;;;;;;6266288;22;19919;-70
2024/01/01 10:43:08;;;;;;;;;;;6.90;100.00;;;;;;6266557;22;19965;-71
2024/01/01 10:45:35;;;;;;;;;;;6.90;100.00;;;;;;6238463;22;20328;-71
2024/01/01 10:48:05;;;;;;;;;;;7.00;100.00;;;;;;6238809;22;20327;-72
2024/01/01 10:50:35;;;;;;;;;;;7.00;100.00;;;;;;6265464;22;19969;-72
2024/01/01 10:53:07;;;;;;;;;;;7.00;100.00;;;;;;6264507;22;19973;-73
2024/01/01 10:55:47;;;;;;;;;;;7.00;100.00;;;;;;6265100;22;19926;-72
2024/01/01 10:58:32;;;;;;;;;;;7.10;100.00;;;;;;6265446;22;19919;-72
2024/01/01 11:01:13;;;;;;;;;;;7.10;100.00;;;;;;6265776;22;20314;-72
2024/01/01 11:03:41;;;;;;;;;;;7.20;100.00;;;;;;6266422;22;20528;-72
2024/01/01 11:06:35;;;;;;;;;;;7.30;100.00;;;;;;6265929;22;19919;-72
2024/01/01 11:09:20;;;;;;;;;;;7.30;100.00;;;;;;6266355;22;19946;-72
2024/01/01 11:11:48;;;;;;;;;;;7.30;100.00;;;;;;6266701;22;19934;-72
2024/01/01 11:14:24;;;;;;;;;;;7.20;100.00;;;;;;6265857;22;19923;-72
2024/01/01 11:16:51;;;;;;;;;;;7.20;100.00;;;;;;6264879;22;20575;-72
2024/01/01 11:19:48;;;;;;;;;;;7.20;100.00;;;;;;6266009;22;19919;-72
2024/01/01 11:22:18;;;;;;;;;;;7.20;100.00;;;;;;6263588;22;19926;-72
2024/01/01 11:24:46;;;;;;;;;;;7.20;100.00;;;;;;6264532;22;19919;-72
2024/01/01 11:27:22;;;;;;;;;;;7.20;100.00;;;;;;6264806;22;19919;-71
2024/01/01 11:29:48;;;;;;;;;;;7.20;100.00;;;;;;6264852;22;19926;-71
2024/01/01 11:32:18;;;;;;;;;;;7.30;100.00;;;;;;6263983;22;19921;-71
2024/01/01 11:35:08;;;;;;;;;;;7.30;100.00;;;;;;6265182;22;19923;-72
2024/01/01 11:37:36;;;;;;;;;;;7.40;100.00;;;;;;6264742;22;19919;-72
2024/01/01 11:40:04;;;;;;;;;;;7.40;100.00;;;;;;6265117;22;20389;-72
2024/01/01 11:42:31;;;;;;;;;;;7.40;100.00;;;;;;6264459;22;20020;-72
2024/01/01 11:45:12;;;;;;;;;;;7.40;100.00;;;;;;6238656;22;19919;-73
2024/01/01 11:47:39;;;;;;;;;;;7.40;100.00;;;;;;6264188;22;19919;-72
2024/01/01 11:50:07;;;;;;;;;;;7.40;100.00;;;;;;6238042;22;20588;-72
2024/01/01 11:52:34;;;;;;;;;;;7.40;100.00;;;;;;6264122;22;19925;-71
2024/01/01 11:55:01;;;;;;;;;;;7.50;100.00;;;;;;6264651;22;19976;-72
2024/01/01 11:57:28;;;;;;;;;;;7.60;100.00;;;;;;6263901;22;19988;-71
2024/01/01 11:59:56;;;;;;;;;;;7.80;100.00;;;;;;6237543;22;19919;-72
2024/01/01 12:02:22;;;;;;;;;;;7.90;100.00;;;;;;6263833;22;19927;-72
2024/01/01 12:04:50;;;;;;;;;;;8.00;100.00;;;;;;6263023;22;19926;-73
2024/01/01 12:07:29;;;;;;;;;;;8.00;100.00;;;;;;6263468;22;19990;-72
2024/01/01 12:10:07;;;;;;;;;;;7.90;100.00;;;;;;6236024;22;19976;-72
2024/01/01 12:12:38;;;;;;;;;;;7.80;100.00;;;;;;6237114;22;19969;-71
2024/01/01 12:15:30;;;;;;;;;;;7.70;100.00;;;;;;6266638;22;19919;-72
2024/01/01 12:17:57;;;;;;;;;;;7.50;100.00;;;;;;6233502;22;19923;-71
2024/01/01 12:20:24;;;;;;;;;;;7.40;100.00;;;;;;6238173;22;19925;-71
2024/01/01 12:22:53;;;;;;;;;;;7.30;100.00;;;;;;6265270;22;19925;-71
2024/01/01 12:25:21;;;;;;;;;;;7.20;100.00;;;;;;6265367;22;20399;-72
2024/01/01 12:28:01;;;;;;;;;;;7.10;100.00;;;;;;6238424;22;19980;-71
2024/01/01 12:30:28;;;;;;;;;;;7.00;100.00;;;;;;6267907;22;19958;-71
2024/01/01 12:32:55;;;;;;;;;;;6.90;100.00;;;;;;6241090;22;20413;-71
2024/01/01 12:35:23;;;;;;;;;;;6.80;100.00;;;;;;6241401;22;20033;-72
2024/01/01 12:37:51;;;;;;;;;;;6.70;100.00;;;;;;6267747;22;19968;-71
2024/01/01 12:40:18;;;;;;;;;;;6.70;100.00;;;;;;6266023;22;19923;-71
2024/01/01 12:42:45;;;;;;;;;;;6.60;100.00;;;;;;6238923;22;19919;-71
2024/01/01 12:45:12;;;;;;;;;;;6.60;100.00;;;;;;6239410;22;19926;-71
2024/01/01 12:47:39;;;;;;;;;;;6.60;100.00;;;;;;6267265;22;19923;-71
2024/01/01 12:50:07;;;;;;;;;;;6.50;100.00;;;;;;6240043;22;19938;-72
2024/01/01 12:52:35;;;;;;;;;;;6.50;100.00;;;;;;6265541;22;19930;-73
2024/01/01 12:55:02;;;;;;;;;;;6.50;100.00;;;;;;6239845;22;19997;-73
2024/01/01 12:57:29;;;;;;;;;;;6.50;100.00;;;;;;6267138;22;19919;-73
2024/01/01 12:59:56;;;;;;;;;;;6.40;100.00;;;;;;6267226;22;19919;-73
2024/01/01 13:02:22;;;;;;;;;;;6.40;100.00;;;;;;6267818;22;19919;-72
2024/01/01 13:04:49;;;;;;;;;;;6.40;100.00;;;;;;6267530;22;19926;-72
2024/01/01 13:07:16;;;;;;;;;;;6.30;100.00;;;;;;6266913;22;20002;-72
2024/01/01 13:09:43;;;;;;;;;;;6.30;100.00;;;;;;6239956;22;19919;-72
2024/01/01 13:12:10;;;;;;;;;;;6.30;100.00;;;;;;6240101;22;20308;-72
2024/01/01 13:14:41;;;;;;;;;;;6.30;100.00;;;;;;6266651;22;19919;-72
2024/01/01 13:17:07;;;;;;;;;;;6.30;100.00;;;;;;6267212;22;19923;-72
2024/01/01 13:19:36;;;;;;;;;;;6.30;100.00;;;;;;6267425;22;19946;-72
2024/01/01 13:22:02;;;;;;;;;;;6.20;100.00;;;;;;6240479;22;19919;-72
2024/01/01 13:24:29;;;;;;;;;;;6.20;100.00;;;;;;6266611;22;19965;-72
2024/01/01 13:26:57;;;;;;;;;;;6.20;100.00;;;;;;6266702;22;19980;-72
2024/01/01 13:29:24;;;;;;;;;;;6.20;100.00;;;;;;6240844;22;20516;-72
2024/01/01 13:31:51;;;;;;;;;;;6.20;100.00;;;;;;6265892;22;19942;-72
2024/01/01 13:34:18;;;;;;;;;;;6.20;100.00;;;;;;6239667;22;19998;-72
2024/01/01 13:36:45;;;;;;;;;;;6.20;100.00;;;;;;6240409;22;20251;-72
2024/01/01 13:39:13;;;;;;;;;;;6.20;100.00;;;;;;6266294;22;20395;-72
2024/01/01 13:41:40;;;;;;;;;;;6.20;100.00;;;;;;6265630;22;19919;-72
2024/01/01 13:44:06;;;;;;;;;;;6.20;100.00;;;;;;6239924;22;19915;-72
2024/01/01 13:46:33;;;;;;;;;;;6.20;100.00;;;;;;6266134;22;20668;-72
2024/01/01 13:49:00;;;;;;;;;;;6.30;100.00;;;;;;6265060;22;20591;-72
2024/01/01 13:51:27;;;;;;;;;;;6.20;100.00;;;;;;6266228;22;19919;-72
2024/01/01 13:53:54;;;;;;;;;;;6.30;100.00;;;;;;6266602;22;19919;-72
2024/01/01 13:56:21;;;;;;;;;;;6.20;100.00;;;;;;6265502;22;20399;-72
2024/01/01 13:58:49;;;;;;;;;;;6.30;100.00;;;;;;6264956;22;20510;-72
2024/01/01 14:01:16;;;;;;;;;;;6.20;100.00;;;;;;6238508;22;19919;-72
2024/01/01 14:03:43;;;;;;;;;;;6.20;100.00;;;;;;6238968;22;19919;-70
2024/01/01 14:06:14;;;;;;;;;;;6.20;100.00;;;;;;6266561;22;19918;-72
2024/01/01 14:08:40;;;;;;;;;;;6.20;100.00;;;;;;6215299;22;19949;-73
2024/01/01 14:13:35;;;;;;;;;;;6.20;100.00;;;;;;6203334;23;20293;-68
2024/01/01 14:16:02;;;;;;;;;;;6.20;100.00;;;;;;6177136;23;19970;-67
2024/01/01 14:18:29;;;;;;;;;;;6.20;100.00;;;;;;6203766;23;19924;-68
2024/01/01 14:20:56;;;;;;;;;;;6.20;100.00;;;;;;6203841;23;19924;-68
2024/01/01 14:23:22;;;;;;;;;;;6.20;100.00;;;;;;6204234;23;19926;-68